Time;durP1;ratioP1;P1;durP2;ratioP2;P2;SDS_P1;SDS_P2;PMS_P1;PMS_P2;Temp;Humidity;BMP_temperature;BMP_pressure;BME280_temperature;BME280_humidity;BME280_pressure;Samples;Min_cycle;Max_cycle;Signal;HPM_P1;HPM_P2
2022/09/08 00:01:44;;;;;;;13.20;9.48;;;15.90;99.90;;;;;;5036948;28;20556;-72
2022/09/08 00:04:10;;;;;;;14.02;10.65;;;16.00;99.90;;;;;;5055316;28;20095;-72
2022/09/08 00:06:36;;;;;;;13.68;11.18;;;16.00;99.90;;;;;;5056897;28;20072;-73
2022/09/08 00:09:01;;;;;;;14.70;10.88;;;16.00;99.90;;;;;;5056556;28;20457;-72
2022/09/08 00:11:31;;;;;;;13.50;10.15;;;16.00;99.90;;;;;;5056829;28;20041;-72
2022/09/08 00:14:04;;;;;;;16.30;14.35;;;15.90;99.90;;;;;;5039127;28;20045;-72
2022/09/08 00:16:30;;;;;;;15.63;11.82;;;16.00;99.90;;;;;;5057372;28;20441;-73
2022/09/08 00:18:56;;;;;;;14.48;12.98;;;16.00;99.90;;;;;;5022901;28;20059;-72
2022/09/08 00:21:24;;;;;;;17.30;14.13;;;15.90;99.90;;;;;;5056442;28;20373;-72
2022/09/08 00:23:50;;;;;;;20.20;15.13;;;15.90;99.90;;;;;;5055446;28;20048;-73
2022/09/08 00:26:17;;;;;;;21.02;14.80;;;15.90;99.90;;;;;;5056657;28;20052;-72
2022/09/08 00:28:43;;;;;;;24.60;16.35;;;16.00;99.90;;;;;;5056374;28;20099;-72
2022/09/08 00:31:09;;;;;;;21.58;16.48;;;15.90;99.90;;;;;;5056477;28;20084;-72
2022/09/08 00:33:35;;;;;;;18.67;15.18;;;15.90;99.90;;;;;;5056673;28;20049;-72
2022/09/08 00:36:03;;;;;;;23.10;17.92;;;15.90;99.90;;;;;;5056550;28;20371;-72
2022/09/08 00:38:30;;;;;;;19.15;17.17;;;15.90;99.90;;;;;;5055672;28;20053;-72
2022/09/08 00:40:56;;;;;;;22.05;15.73;;;15.80;99.90;;;;;;5056370;28;20041;-72
2022/09/08 00:43:30;;;;;;;23.70;18.08;;;15.80;99.90;;;;;;5056021;28;20524;-72
2022/09/08 00:45:56;;;;;;;;;;;15.80;99.90;;;;;;5056198;28;20529;-72
2022/09/08 00:48:22;;;;;;;23.42;20.70;;;15.80;99.90;;;;;;5056148;28;20023;-72
2022/09/08 00:50:47;;;;;;;24.10;19.38;;;15.80;99.90;;;;;;5056325;28;20084;-71
2022/09/08 00:53:16;;;;;;;22.83;20.27;;;15.70;99.90;;;;;;5055697;28;20060;-72
2022/09/08 00:55:42;;;;;;;21.35;18.25;;;15.70;99.90;;;;;;5038622;28;20077;-72
2022/09/08 00:58:09;;;;;;;27.40;22.08;;;15.70;99.90;;;;;;5055704;28;20060;-73
2022/09/08 01:00:36;;;;;;;24.65;22.00;;;15.70;99.90;;;;;;5056190;28;20374;-73
2022/09/08 01:03:05;;;;;;;29.20;24.60;;;15.70;99.90;;;;;;5055878;28;20048;-72
2022/09/08 01:05:46;;;;;;;27.17;22.15;;;15.70;99.90;;;;;;5055683;28;20045;-73
2022/09/08 01:14:09;;;;;;;27.40;22.00;;;15.60;99.90;;;;;;5026975;28;20144;-73
2022/09/08 01:16:39;;;;;;;24.05;21.35;;;15.60;99.90;;;;;;5055749;28;20051;-72
2022/09/08 01:19:19;;;;;;;30.92;25.25;;;15.60;99.90;;;;;;5055524;28;20053;-72
2022/09/08 01:22:14;;;;;;;29.42;26.27;;;15.60;99.90;;;;;;5055341;28;20069;-73
2022/09/08 01:24:58;;;;;;;29.58;25.42;;;15.60;99.90;;;;;;5035514;28;20049;-72
2022/09/08 01:27:26;;;;;;;30.17;25.95;;;15.80;99.90;;;;;;5035694;28;20081;-72
2022/09/08 01:29:56;;;;;;;28.45;25.40;;;15.60;99.90;;;;;;5035914;28;20099;-72
2022/09/08 01:32:23;;;;;;;35.03;26.92;;;15.70;99.90;;;;;;5035216;28;20041;-72
2022/09/08 01:34:50;;;;;;;32.05;28.00;;;15.70;99.90;;;;;;5034932;28;20050;-71
2022/09/08 01:37:15;;;;;;;29.90;26.23;;;15.70;99.90;;;;;;5040153;28;20424;-72
2022/09/08 01:39:41;;;;;;;33.33;29.73;;;15.70;99.90;;;;;;5055204;28;20136;-72
2022/09/08 01:42:07;;;;;;;32.50;27.85;;;15.70;99.90;;;;;;5054981;28;20406;-72
2022/09/08 01:44:33;;;;;;;32.88;29.35;;;15.70;99.90;;;;;;5054952;28;20052;-72
2022/09/08 01:46:58;;;;;;;32.13;28.58;;;15.70;99.90;;;;;;5054787;28;20045;-72
2022/09/08 01:49:24;;;;;;;31.73;28.05;;;15.70;99.90;;;;;;5055303;28;20453;-72
2022/09/08 01:51:50;;;;;;;32.58;28.45;;;15.70;99.90;;;;;;5055036;28;20045;-73
2022/09/08 01:54:16;;;;;;;40.15;33.10;;;15.70;99.90;;;;;;5054756;28;20056;-71
2022/09/08 01:56:41;;;;;;;33.58;29.80;;;15.70;99.90;;;;;;5054923;28;20067;-72
2022/09/08 01:59:07;;;;;;;36.30;32.03;;;15.80;99.90;;;;;;5055194;28;20045;-72
2022/09/08 02:01:32;;;;;;;36.75;32.30;;;15.80;99.90;;;;;;5054197;28;20461;-72
2022/09/08 02:03:58;;;;;;;40.38;34.25;;;15.80;99.90;;;;;;5054961;28;20045;-73
2022/09/08 02:06:24;;;;;;;40.17;35.22;;;15.80;99.90;;;;;;5055068;28;20132;-72
2022/09/08 02:08:53;;;;;;;45.58;38.50;;;15.90;99.90;;;;;;5054839;28;20078;-71
2022/09/08 02:11:19;;;;;;;42.95;37.83;;;15.90;99.90;;;;;;5036737;28;20040;-72
2022/09/08 02:13:45;;;;;;;51.40;40.53;;;16.00;99.90;;;;;;5037967;28;20041;-72
2022/09/08 02:16:11;;;;;;;48.38;42.10;;;16.00;99.90;;;;;;5054897;28;20053;-72
2022/09/08 02:18:38;;;;;;;49.15;40.42;;;16.00;99.90;;;;;;5054743;28;20044;-72
2022/09/08 02:21:14;;;;;;;51.38;41.15;;;16.00;99.90;;;;;;5054683;28;20045;-72
2022/09/08 02:23:42;;;;;;;49.63;42.22;;;16.20;99.90;;;;;;5054303;28;20044;-72
2022/09/08 02:26:17;;;;;;;58.03;43.50;;;16.00;99.90;;;;;;5053769;28;20049;-72
2022/09/08 02:28:43;;;;;;;46.30;40.33;;;16.20;99.90;;;;;;5054558;28;20045;-72
2022/09/08 02:31:09;;;;;;;50.15;42.63;;;16.10;99.90;;;;;;5054648;28;20060;-72
2022/09/08 02:33:35;;;;;;;49.03;40.08;;;16.20;99.90;;;;;;5054450;28;20041;-72
2022/09/08 02:36:02;;;;;;;51.53;43.00;;;16.20;99.90;;;;;;5054505;28;20060;-72
2022/09/08 02:38:28;;;;;;;47.72;42.45;;;16.20;99.90;;;;;;5054712;28;20131;-72
2022/09/08 02:40:54;;;;;;;47.90;41.30;;;16.20;99.90;;;;;;5053958;28;20131;-72
2022/09/08 02:43:20;;;;;;;51.08;42.97;;;16.30;99.90;;;;;;5054386;28;20041;-72
2022/09/08 02:45:46;;;;;;;51.20;43.90;;;16.20;99.90;;;;;;5054227;28;20116;-71
2022/09/08 02:48:12;;;;;;;52.70;44.47;;;16.30;99.90;;;;;;5058191;28;20083;-73
2022/09/08 02:50:38;;;;;;;51.70;43.17;;;16.30;99.90;;;;;;5058300;28;20049;-72
2022/09/08 02:53:04;;;;;;;58.63;46.17;;;16.20;99.90;;;;;;5058149;28;20049;-72
2022/09/08 02:55:30;;;;;;;52.70;44.60;;;16.30;99.90;;;;;;5040182;28;20053;-72
2022/09/08 02:57:55;;;;;;;57.05;45.33;;;16.30;99.90;;;;;;5057371;28;20040;-72
2022/09/08 03:00:21;;;;;;;54.53;46.78;;;16.30;99.90;;;;;;5058097;28;20047;-73
2022/09/08 03:02:47;;;;;;;55.03;45.05;;;16.30;99.90;;;;;;5058308;28;20044;-73
2022/09/08 03:05:13;;;;;;;51.60;43.90;;;16.40;99.90;;;;;;5057849;28;20052;-72
2022/09/08 03:07:39;;;;;;;56.58;47.40;;;16.30;99.90;;;;;;5057859;28;20044;-72
2022/09/08 03:10:06;;;;;;;53.15;46.13;;;16.30;99.90;;;;;;5057667;28;20361;-73
2022/09/08 03:12:33;;;;;;;59.97;47.88;;;16.30;99.90;;;;;;5040614;28;20060;-71
2022/09/08 03:14:58;;;;;;;57.80;45.97;;;16.40;99.90;;;;;;5058020;28;20093;-72
2022/09/08 03:17:24;;;;;;;59.10;47.33;;;16.30;99.90;;;;;;5057998;28;20087;-72
2022/09/08 03:19:50;;;;;;;63.15;48.78;;;16.30;99.90;;;;;;5057744;28;20339;-73
2022/09/08 03:22:17;;;;;;;59.97;49.13;;;16.30;99.90;;;;;;5057620;28;20049;-73
2022/09/08 03:24:43;;;;;;;60.13;48.83;;;16.30;99.90;;;;;;5057889;28;20041;-73
2022/09/08 03:27:09;;;;;;;59.90;47.10;;;16.30;99.90;;;;;;5040301;28;20045;-72
2022/09/08 03:29:35;;;;;;;60.05;49.65;;;16.30;99.90;;;;;;5057580;28;20051;-73
2022/09/08 03:32:01;;;;;;;60.63;49.25;;;16.20;99.90;;;;;;5057661;28;20116;-73
2022/09/08 03:34:26;;;;;;;58.20;48.22;;;16.30;99.90;;;;;;5057442;28;20052;-73
2022/09/08 03:36:53;;;;;;;58.90;48.60;;;16.30;99.90;;;;;;5039742;28;20388;-72
2022/09/08 03:39:19;;;;;;;59.58;48.53;;;16.30;99.90;;;;;;5057025;28;20094;-72
2022/09/08 03:41:45;;;;;;;63.75;50.92;;;16.30;99.90;;;;;;5057297;28;20049;-71
2022/09/08 03:44:10;;;;;;;61.90;52.13;;;16.30;99.90;;;;;;5057329;28;20118;-71
2022/09/08 03:46:36;;;;;;;61.28;50.30;;;16.30;99.90;;;;;;5057724;28;20041;-71
2022/09/08 03:49:01;;;;;;;65.30;50.80;;;16.30;99.90;;;;;;5057262;28;20453;-73
2022/09/08 03:51:28;;;;;;;53.17;45.05;;;16.30;99.90;;;;;;5057862;28;20104;-72
2022/09/08 03:54:46;;;;;;;60.60;50.95;;;16.40;99.90;;;;;;5056736;28;20056;-71
2022/09/08 03:56:42;;;;;;;64.50;53.55;;;16.30;99.90;;;;;;5056511;28;20049;-72
2022/09/08 03:59:08;;;;;;;64.47;52.60;;;16.30;99.90;;;;;;5056364;28;20375;-72
2022/09/08 04:01:34;;;;;;;60.58;48.72;;;16.30;99.90;;;;;;5057116;28;20453;-72
2022/09/08 04:04:00;;;;;;;55.47;48.90;;;16.30;99.90;;;;;;5058803;28;20037;-73
2022/09/08 04:06:25;;;;;;;64.32;49.97;;;16.30;99.90;;;;;;5056543;28;20069;-74
2022/09/08 04:08:52;;;;;;;65.35;52.42;;;16.50;99.90;;;;;;5056911;28;20048;-73
2022/09/08 04:11:17;;;;;;;66.47;50.78;;;16.40;99.90;;;;;;5056865;28;20048;-72
2022/09/08 04:13:43;;;;;;;53.05;46.67;;;16.40;99.90;;;;;;5056581;28;20110;-73
2022/09/08 04:16:08;;;;;;;57.30;47.50;;;16.40;99.90;;;;;;5056400;28;20036;-71
2022/09/08 04:18:34;;;;;;;60.83;50.78;;;16.40;99.90;;;;;;5056287;28;20033;-72
2022/09/08 04:21:02;;;;;;;58.78;48.63;;;16.40;99.90;;;;;;5056899;28;20045;-72
2022/09/08 04:23:28;;;;;;;60.45;49.40;;;16.40;99.90;;;;;;5056557;28;20060;-71
2022/09/08 04:25:55;;;;;;;62.10;51.40;;;16.40;99.90;;;;;;5055680;28;20045;-73
2022/09/08 04:28:21;;;;;;;59.13;50.40;;;16.40;99.90;;;;;;5056660;28;20041;-74
2022/09/08 04:30:46;;;;;;;58.67;48.70;;;16.40;99.90;;;;;;5039180;28;20053;-74
2022/09/08 04:33:12;;;;;;;62.45;51.63;;;16.40;99.90;;;;;;5038471;28;20045;-73
2022/09/08 04:35:37;;;;;;;60.40;49.85;;;16.40;99.90;;;;;;5022280;28;20057;-72
2022/09/08 04:38:03;;;;;;;61.85;50.65;;;16.40;99.90;;;;;;5056153;28;20373;-73
2022/09/08 04:40:28;;;;;;;58.78;48.42;;;16.50;99.90;;;;;;5056249;28;20057;-73
2022/09/08 04:42:54;;;;;;;55.42;47.63;;;16.50;99.90;;;;;;5056618;28;20463;-72
2022/09/08 04:45:20;;;;;;;64.43;52.53;;;16.40;99.90;;;;;;5056083;28;20531;-72
2022/09/08 04:47:45;;;;;;;53.40;46.28;;;16.50;99.90;;;;;;5055888;28;20067;-74
2022/09/08 04:50:11;;;;;;;64.80;51.00;;;16.50;99.90;;;;;;5055591;28;20076;-73
2022/09/08 04:52:36;;;;;;;68.15;49.67;;;16.50;99.90;;;;;;5055644;28;20044;-74
2022/09/08 04:55:02;;;;;;;66.70;51.47;;;16.50;99.90;;;;;;5056162;28;20436;-73
2022/09/08 04:57:28;;;;;;;58.53;48.65;;;16.50;99.90;;;;;;5055809;28;20055;-73
2022/09/08 04:59:54;;;;;;;60.55;48.95;;;16.40;99.90;;;;;;5055696;28;20037;-72
2022/09/08 05:02:19;;;;;;;63.92;49.47;;;16.50;99.90;;;;;;5055637;28;20064;-71
2022/09/08 05:04:45;;;;;;;70.28;52.70;;;16.50;99.90;;;;;;5056018;28;20045;-72
2022/09/08 05:07:11;;;;;;;59.92;49.75;;;16.50;99.90;;;;;;5055153;28;20045;-73
2022/09/08 05:09:36;;;;;;;62.33;49.15;;;16.50;99.90;;;;;;5055467;28;20103;-72
2022/09/08 05:12:02;;;;;;;62.97;50.17;;;16.50;99.90;;;;;;5055650;28;20048;-73
2022/09/08 05:14:27;;;;;;;54.35;45.17;;;16.50;99.90;;;;;;5055558;28;20045;-73
2022/09/08 05:16:53;;;;;;;62.67;51.78;;;16.50;99.90;;;;;;5056088;28;20469;-72
2022/09/08 05:19:18;;;;;;;64.20;51.78;;;16.40;99.90;;;;;;5055246;28;20128;-73
2022/09/08 05:21:44;;;;;;;57.70;48.88;;;16.40;99.90;;;;;;5055565;28;20425;-72
2022/09/08 05:24:10;;;;;;;62.47;50.60;;;16.40;99.90;;;;;;5055504;28;20095;-73
2022/09/08 05:26:35;;;;;;;65.68;51.65;;;16.40;99.90;;;;;;5055505;28;20060;-72
2022/09/08 05:29:03;;;;;;;59.97;50.70;;;16.50;99.90;;;;;;5055484;28;20128;-72
2022/09/08 05:31:30;;;;;;;65.82;52.67;;;16.50;99.90;;;;;;5055138;28;20055;-72
2022/09/08 05:33:57;;;;;;;66.75;50.97;;;16.60;99.90;;;;;;5054769;28;20041;-73
2022/09/08 05:36:29;;;;;;;59.25;48.83;;;16.60;99.90;;;;;;5054832;28;20557;-72
2022/09/08 05:38:54;;;;;;;55.45;48.63;;;16.60;99.90;;;;;;5054934;28;20041;-73
2022/09/08 05:41:21;;;;;;;56.92;46.85;;;16.60;99.90;;;;;;5055158;28;20102;-72
2022/09/08 05:43:47;;;;;;;51.45;44.65;;;16.60;99.90;;;;;;5054957;28;20051;-72
2022/09/08 05:46:13;;;;;;;56.83;46.47;;;16.60;99.90;;;;;;5054836;28;20445;-73
2022/09/08 05:48:38;;;;;;;48.65;42.97;;;16.70;99.90;;;;;;5054776;28;20053;-72
2022/09/08 05:51:18;;;;;;;58.53;50.00;;;16.80;99.90;;;;;;5055015;28;20480;-72
2022/09/08 05:53:45;;;;;;;61.42;51.30;;;16.80;99.90;;;;;;5055130;28;20045;-73
2022/09/08 05:56:10;;;;;;;55.85;47.20;;;16.80;99.90;;;;;;5054972;28;20056;-72
2022/09/08 05:58:36;;;;;;;57.85;48.63;;;16.90;99.90;;;;;;5054871;28;20120;-73
2022/09/08 06:01:10;;;;;;;56.08;47.05;;;16.90;99.90;;;;;;5054536;28;20044;-72
2022/09/08 06:03:36;;;;;;;56.05;46.13;;;16.90;99.90;;;;;;5053912;28;20428;-72
2022/09/08 06:06:07;;;;;;;56.35;46.38;;;17.00;99.90;;;;;;5054236;28;20091;-72
2022/09/08 06:08:34;;;;;;;55.78;46.97;;;17.00;99.90;;;;;;5054780;28;20110;-73
2022/09/08 06:10:59;;;;;;;51.35;44.72;;;17.00;99.90;;;;;;5054557;28;20041;-73
2022/09/08 06:13:26;;;;;;;47.80;42.40;;;17.00;99.90;;;;;;5054537;28;20365;-72
2022/09/08 06:15:51;;;;;;;57.78;45.28;;;17.00;99.90;;;;;;5054582;28;20037;-72
2022/09/08 06:18:18;;;;;;;46.33;41.30;;;17.00;99.90;;;;;;5054766;28;20055;-73
2022/09/08 06:20:45;;;;;;;56.28;41.05;;;17.00;99.90;;;;;;5054215;28;20064;-72
2022/09/08 06:23:11;;;;;;;53.55;45.38;;;17.00;99.90;;;;;;5058576;28;20048;-73
2022/09/08 06:25:43;;;;;;;45.03;38.40;;;17.00;99.90;;;;;;5040836;28;20457;-73
2022/09/08 06:28:19;;;;;;;47.33;38.95;;;17.00;99.90;;;;;;5058650;28;20436;-72
2022/09/08 06:30:50;;;;;;;52.22;44.13;;;17.10;99.90;;;;;;5058874;28;20064;-73
2022/09/08 06:33:21;;;;;;;48.78;41.47;;;17.00;99.90;;;;;;5040875;28;20041;-72
2022/09/08 06:36:08;;;;;;;59.28;47.83;;;17.10;99.90;;;;;;5058686;28;20453;-72
2022/09/08 06:38:37;;;;;;;51.88;42.15;;;17.10;99.90;;;;;;5058241;28;20442;-74
2022/09/08 06:41:12;;;;;;;49.63;43.00;;;17.10;99.90;;;;;;5058746;28;20443;-73
2022/09/08 06:43:45;;;;;;;52.97;46.75;;;17.10;99.90;;;;;;5058303;28;20489;-72
2022/09/08 06:46:28;;;;;;;;;;;17.20;99.90;;;;;;5058854;28;20412;-72
2022/09/08 06:48:54;;;;;;;61.60;45.45;;;17.20;99.90;;;;;;5057888;28;19931;-73
2022/09/08 06:51:24;;;;;;;46.10;39.33;;;17.10;99.90;;;;;;5058610;28;20040;-73
2022/09/08 06:54:10;;;;;;;50.75;41.40;;;17.10;99.90;;;;;;5058385;28;20055;-73
2022/09/08 06:56:54;;;;;;;51.42;44.60;;;17.20;99.90;;;;;;5058162;28;20110;-72
2022/09/08 06:59:38;;;;;;;;;;;17.20;99.90;;;;;;5041452;28;20404;-72
2022/09/08 07:02:07;;;;;;;52.35;45.53;;;17.10;99.90;;;;;;5058074;28;20380;-73
2022/09/08 07:04:51;;;;;;;56.15;47.55;;;17.10;99.90;;;;;;5058020;28;20107;-72
2022/09/08 07:07:52;;;;;;;63.42;50.28;;;17.10;99.90;;;;;;5057871;28;20081;-72
2022/09/08 07:10:29;;;;;;;61.25;50.22;;;17.10;99.90;;;;;;5015673;28;20056;-73
2022/09/08 07:13:01;;;;;;;55.30;45.10;;;17.10;99.90;;;;;;5058079;28;20059;-72
2022/09/08 07:15:33;;;;;;;69.45;53.65;;;17.10;99.90;;;;;;5057945;28;20049;-72
2022/09/08 07:18:05;;;;;;;65.10;51.58;;;17.10;99.90;;;;;;5057276;28;20063;-72
2022/09/08 07:20:31;;;;;;;62.65;50.75;;;17.10;99.90;;;;;;5057771;28;20049;-71
2022/09/08 07:23:08;;;;;;;60.97;46.97;;;17.10;99.90;;;;;;5039991;28;20479;-72
2022/09/08 07:25:52;;;;;;;71.95;55.08;;;17.00;99.90;;;;;;5057662;28;20446;-72
2022/09/08 07:28:33;;;;;;;70.53;53.30;;;17.00;99.90;;;;;;5057607;28;20053;-72
2022/09/08 07:31:04;;;;;;;65.78;53.15;;;17.00;99.90;;;;;;5057677;28;20472;-72
2022/09/08 07:33:41;;;;;;;63.08;51.13;;;17.00;99.90;;;;;;5056599;28;20040;-70
2022/09/08 07:36:26;;;;;;;69.45;51.70;;;17.00;99.90;;;;;;5057331;28;20041;-72
2022/09/08 07:38:57;;;;;;;55.92;44.80;;;16.90;99.90;;;;;;5056977;28;20061;-73
2022/09/08 07:41:33;;;;;;;58.28;46.30;;;17.00;99.90;;;;;;5057772;28;20127;-71
2022/09/08 07:44:00;;;;;;;62.97;44.95;;;17.00;99.90;;;;;;5057451;28;20056;-72
2022/09/08 07:46:34;;;;;;;71.90;49.42;;;16.90;99.90;;;;;;5057416;28;20049;-71
2022/09/08 07:49:35;;;;;;;52.83;42.83;;;17.00;99.90;;;;;;5057147;28;20102;-71
2022/09/08 07:52:36;;;;;;;73.80;49.63;;;16.90;99.90;;;;;;5056915;28;20515;-72
2022/09/08 07:55:15;;;;;;;75.55;50.97;;;16.90;99.90;;;;;;5057314;28;20339;-71
2022/09/08 07:58:18;;;;;;;80.20;51.58;;;16.90;99.90;;;;;;5056634;28;20465;-71
2022/09/08 08:00:50;;;;;;;67.57;46.58;;;16.90;99.90;;;;;;5057204;28;20131;-73
2022/09/08 08:03:51;;;;;;;67.03;47.42;;;16.80;99.90;;;;;;5057158;28;20041;-72
2022/09/08 08:06:37;;;;;;;57.92;44.50;;;16.80;99.90;;;;;;5056879;28;20045;-72
2022/09/08 08:09:22;;;;;;;73.22;46.50;;;16.90;99.90;;;;;;5056914;28;20045;-74
2022/09/08 08:12:13;;;;;;;61.42;44.80;;;16.80;99.90;;;;;;5057083;28;20041;-71
2022/09/08 08:14:46;;;;;;;50.53;40.22;;;16.90;99.90;;;;;;5056680;28;20049;-70
2022/09/08 08:17:31;;;;;;;;;;;16.90;99.90;;;;;;5057222;28;20346;-72
2022/09/08 08:20:06;;;;;;;56.55;42.33;;;16.90;99.90;;;;;;5056700;28;19951;-72
2022/09/08 08:22:59;;;;;;;56.95;39.88;;;16.90;99.90;;;;;;5056584;28;20124;-71
2022/09/08 08:25:32;;;;;;;50.97;39.20;;;17.00;99.90;;;;;;5056860;28;20132;-72
2022/09/08 08:28:05;;;;;;;48.78;38.65;;;17.10;99.90;;;;;;5056211;28;20099;-72
2022/09/08 08:30:38;;;;;;;56.28;41.28;;;17.10;99.90;;;;;;5056621;28;20037;-72
2022/09/08 08:33:16;;;;;;;;;;;17.30;99.90;;;;;;5056388;28;20499;-72
2022/09/08 08:36:12;;;;;;;47.95;39.75;;;17.20;99.90;;;;;;5055978;28;19925;-72
2022/09/08 08:38:45;;;;;;;41.08;36.65;;;17.30;99.90;;;;;;5039773;28;20190;-72
2022/09/08 08:41:40;;;;;;;63.22;46.28;;;17.40;99.90;;;;;;5056419;28;20052;-72
2022/09/08 08:44:47;;;;;;;46.85;38.00;;;17.50;99.90;;;;;;5018256;28;20053;-72
2022/09/08 08:47:22;;;;;;;52.20;42.08;;;17.50;99.90;;;;;;5035955;28;20100;-73
2022/09/08 08:50:29;;;;;;;51.13;42.30;;;17.60;99.90;;;;;;5036449;28;20052;-71
2022/09/08 08:53:28;;;;;;;34.33;30.63;;;17.70;99.90;;;;;;5036256;28;20037;-72
2022/09/08 08:56:03;;;;;;;42.67;36.85;;;17.70;99.90;;;;;;5035863;28;20377;-72
2022/09/08 08:58:58;;;;;;;38.47;33.90;;;17.70;99.90;;;;;;5053588;28;20051;-72
2022/09/08 09:01:43;;;;;;;44.55;37.10;;;17.70;99.90;;;;;;5055507;28;20071;-72
2022/09/08 09:04:27;;;;;;;41.60;32.90;;;17.80;99.90;;;;;;5055905;28;20047;-73
2022/09/08 09:07:16;;;;;;;37.78;32.05;;;17.80;99.90;;;;;;5055497;28;20450;-72
2022/09/08 09:10:09;;;;;;;36.15;30.92;;;17.90;99.90;;;;;;5055587;28;20060;-73
2022/09/08 09:12:43;;;;;;;38.38;33.30;;;17.90;99.90;;;;;;5055841;28;20118;-73
2022/09/08 09:15:40;;;;;;;37.10;31.92;;;18.00;99.90;;;;;;5055777;28;20445;-72
2022/09/08 09:18:36;;;;;;;30.67;27.38;;;18.00;99.90;;;;;;5055537;28;20040;-73
2022/09/08 09:21:26;;;;;;;31.38;26.42;;;18.10;99.90;;;;;;5055269;28;20107;-72
2022/09/08 09:24:04;;;;;;;28.80;23.70;;;18.10;99.90;;;;;;5056015;28;20049;-72
2022/09/08 09:26:33;;;;;;;24.35;21.75;;;18.00;99.90;;;;;;5055333;28;20043;-73
2022/09/08 09:29:11;;;;;;;21.23;17.95;;;17.90;99.90;;;;;;5055228;28;20449;-72
2022/09/08 09:31:42;;;;;;;22.20;18.10;;;18.10;99.90;;;;;;5054409;28;20045;-72
2022/09/08 09:34:29;;;;;;;18.92;14.90;;;18.10;99.90;;;;;;5054665;28;20113;-72
2022/09/08 09:37:29;;;;;;;20.15;14.65;;;18.10;99.90;;;;;;5037685;28;20388;-72
2022/09/08 09:40:06;;;;;;;15.45;13.23;;;18.20;99.90;;;;;;5029221;28;20055;-72
2022/09/08 09:42:41;;;;;;;15.10;11.70;;;18.20;99.90;;;;;;5055512;28;20067;-72
2022/09/08 09:45:33;;;;;;;15.38;11.85;;;18.30;99.90;;;;;;5055076;28;20365;-73
2022/09/08 09:48:31;;;;;;;13.60;10.70;;;18.30;99.90;;;;;;5054707;28;20059;-72
2022/09/08 09:51:13;;;;;;;15.55;10.52;;;18.40;99.90;;;;;;5055343;28;20040;-72
2022/09/08 09:53:53;;;;;;;14.05;11.48;;;18.50;99.90;;;;;;5055194;28;20072;-71
2022/09/08 09:56:33;;;;;;;15.15;11.02;;;18.50;99.90;;;;;;5053895;28;20048;-71
2022/09/08 09:59:32;;;;;;;12.65;9.45;;;18.50;99.90;;;;;;5054981;28;20033;-72
2022/09/08 10:02:36;;;;;;;11.40;8.93;;;18.50;99.90;;;;;;5054279;28;20450;-73
2022/09/08 10:05:26;;;;;;;11.40;9.05;;;18.60;99.90;;;;;;5054696;28;20347;-72
2022/09/08 10:08:18;;;;;;;10.52;8.43;;;18.60;99.90;;;;;;5054785;28;20056;-73
2022/09/08 10:10:53;;;;;;;10.32;8.35;;;18.60;99.90;;;;;;5054392;28;20045;-72
2022/09/08 10:13:49;;;;;;;10.43;7.95;;;18.60;99.90;;;;;;5055036;28;20045;-72
2022/09/08 10:16:33;;;;;;;9.35;7.03;;;18.60;99.90;;;;;;5054675;28;20040;-71
2022/09/08 10:19:20;;;;;;;9.18;5.95;;;18.60;99.90;;;;;;5054912;28;20064;-71
2022/09/08 10:22:26;;;;;;;10.40;6.00;;;18.60;99.90;;;;;;5054285;28;20064;-73
2022/09/08 10:25:31;;;;;;;10.02;6.50;;;18.60;99.90;;;;;;5055002;28;20357;-73
2022/09/08 10:28:18;;;;;;;8.77;6.75;;;18.60;99.90;;;;;;5054776;28;20053;-72
2022/09/08 10:31:12;;;;;;;10.05;7.10;;;18.50;99.90;;;;;;5054967;28;20059;-73
2022/09/08 10:33:50;;;;;;;11.18;8.00;;;18.50;99.90;;;;;;5048814;28;20099;-72
2022/09/08 10:36:15;;;;;;;8.25;5.60;;;18.50;99.90;;;;;;5054252;28;20067;-73
2022/09/08 10:38:58;;;;;;;9.32;5.38;;;18.50;99.90;;;;;;5054282;28;20049;-72
2022/09/08 10:41:53;;;;;;;6.90;5.20;;;18.60;99.90;;;;;;5037107;28;20063;-71
2022/09/08 10:44:33;;;;;;;7.93;6.15;;;18.60;99.90;;;;;;5036651;28;20057;-71
2022/09/08 10:47:33;;;;;;;5.40;4.30;;;18.60;99.90;;;;;;5054184;28;20049;-73
2022/09/08 10:50:18;;;;;;;7.82;4.47;;;18.60;99.90;;;;;;5054414;28;20056;-72
2022/09/08 10:52:50;;;;;;;6.93;4.43;;;18.60;99.90;;;;;;5054542;28;20186;-72
2022/09/08 10:55:38;;;;;;;8.60;5.60;;;18.50;99.90;;;;;;5054797;28;20067;-72
2022/09/08 10:58:35;;;;;;;7.88;4.30;;;18.50;99.90;;;;;;5024324;28;20720;-73
2022/09/08 11:01:19;;;;;;;7.25;3.38;;;18.50;99.90;;;;;;5054268;28;20041;-72
2022/09/08 11:04:17;;;;;;;4.75;2.92;;;18.50;99.90;;;;;;5054049;28;20045;-72
2022/09/08 11:06:51;;;;;;;4.90;2.90;;;18.40;99.90;;;;;;5034494;28;20064;-72
2022/09/08 11:09:51;;;;;;;6.78;2.92;;;18.40;99.90;;;;;;5037719;28;20056;-72
2022/09/08 11:12:33;;;;;;;5.45;2.65;;;18.40;99.90;;;;;;5021240;28;20482;-72
2022/09/08 11:15:29;;;;;;;5.03;2.42;;;18.40;99.90;;;;;;5038226;28;20037;-72
2022/09/08 11:18:22;;;;;;;3.85;1.95;;;18.40;99.90;;;;;;5020361;28;20053;-72
2022/09/08 11:21:00;;;;;;;5.72;2.17;;;18.40;99.90;;;;;;5053106;28;20110;-72
2022/09/08 11:23:41;;;;;;;5.18;2.40;;;18.30;99.90;;;;;;5020620;28;20053;-71
2022/09/08 11:26:12;;;;;;;4.03;2.08;;;18.40;99.90;;;;;;5037859;28;20524;-74
2022/09/08 11:28:57;;;;;;;5.13;2.42;;;18.40;99.90;;;;;;5037732;28;20053;-72
2022/09/08 11:32:01;;;;;;;6.68;2.95;;;18.30;99.90;;;;;;5020899;28;20042;-73
2022/09/08 11:34:45;;;;;;;6.90;2.65;;;18.30;99.90;;;;;;5039230;28;20150;-73
2022/09/08 11:37:48;;;;;;;4.88;2.45;;;18.30;99.90;;;;;;5057829;28;20040;-72
2022/09/08 11:40:48;;;;;;;4.45;2.35;;;18.30;99.90;;;;;;5057736;28;20045;-71
2022/09/08 11:43:50;;;;;;;4.63;2.38;;;18.30;99.90;;;;;;5057565;28;20373;-71
2022/09/08 11:46:50;;;;;;;3.70;1.98;;;18.30;99.90;;;;;;5057325;28;20059;-72
2022/09/08 11:49:42;;;;;;;3.60;1.85;;;18.20;99.90;;;;;;5057357;28;20041;-72
2022/09/08 11:52:16;;;;;;;5.75;2.10;;;18.20;99.90;;;;;;5057540;28;20106;-71
2022/09/08 11:55:01;;;;;;;3.22;1.90;;;18.20;99.90;;;;;;5057127;28;20040;-71
2022/09/08 11:57:35;;;;;;;5.38;2.25;;;18.30;99.90;;;;;;5056825;28;20397;-70
2022/09/08 12:00:30;;;;;;;4.72;2.08;;;18.30;99.90;;;;;;5056902;28;20053;-72
2022/09/08 12:03:02;;;;;;;5.05;2.17;;;18.30;99.90;;;;;;5044034;28;20359;-72
2022/09/08 12:05:48;;;;;;;3.17;2.13;;;18.40;99.90;;;;;;5056769;28;20041;-69
2022/09/08 12:08:39;;;;;;;5.03;2.10;;;18.30;99.90;;;;;;5039107;28;20045;-69
2022/09/08 12:11:28;;;;;;;4.78;2.10;;;18.30;99.90;;;;;;5056715;28;20045;-69
2022/09/08 12:13:59;;;;;;;5.07;2.60;;;18.30;99.90;;;;;;5056808;28;20480;-70
2022/09/08 12:16:32;;;;;;;4.30;2.30;;;18.30;99.90;;;;;;5040076;28;20099;-73
2022/09/08 12:19:17;;;;;;;6.50;2.88;;;18.30;99.90;;;;;;5055382;28;20127;-72
2022/09/08 12:22:22;;;;;;;4.30;2.42;;;18.40;99.90;;;;;;5056472;28;20124;-72
2022/09/08 12:24:53;;;;;;;6.15;2.83;;;18.50;99.90;;;;;;5043048;28;20434;-72
2022/09/08 12:27:43;;;;;;;5.40;2.40;;;18.60;99.90;;;;;;5056351;28;20040;-72
2022/09/08 12:30:17;;;;;;;4.65;2.72;;;18.60;99.90;;;;;;5039059;28;20119;-72
2022/09/08 12:33:08;;;;;;;5.75;2.95;;;18.60;99.90;;;;;;5056383;28;20143;-71
2022/09/08 12:35:45;;;;;;;4.63;3.42;;;18.70;99.90;;;;;;5056004;28;20040;-71
2022/09/08 12:38:41;;;;;;;4.72;2.88;;;18.70;99.90;;;;;;5056438;28;20063;-71
2022/09/08 12:41:27;;;;;;;5.60;2.33;;;18.80;99.90;;;;;;5055798;28;20470;-70
2022/09/08 12:44:31;;;;;;;4.30;2.47;;;18.80;99.90;;;;;;5024679;28;20111;-72
2022/09/08 12:47:38;;;;;;;5.28;2.13;;;18.90;99.90;;;;;;5053254;28;20461;-70
2022/09/08 12:50:49;;;;;;;4.78;2.00;;;18.90;99.90;;;;;;5056066;28;20041;-70
2022/09/08 12:53:32;;;;;;;4.65;2.17;;;18.90;99.90;;;;;;5032425;28;20136;-71
2022/09/08 12:56:12;;;;;;;;;;;18.90;99.90;;;;;;5039042;28;20080;-71
2022/09/08 12:58:56;;;;;;;3.55;2.05;;;18.80;99.90;;;;;;5055506;28;19934;-70
2022/09/08 13:01:40;;;;;;;4.53;2.08;;;18.80;99.90;;;;;;5055928;28;20053;-72
2022/09/08 13:04:37;;;;;;;4.32;2.20;;;18.80;99.90;;;;;;5021706;28;20068;-70
2022/09/08 13:07:19;;;;;;;6.05;2.35;;;18.70;99.90;;;;;;5055443;28;20045;-70
2022/09/08 13:10:09;;;;;;;4.47;2.65;;;18.70;99.90;;;;;;5055049;28;20488;-69
2022/09/08 13:13:02;;;;;;;4.55;2.60;;;18.60;99.90;;;;;;5055446;28;20381;-71
2022/09/08 13:15:34;;;;;;;6.65;2.60;;;18.60;99.90;;;;;;5055707;28;20092;-71
2022/09/08 13:18:29;;;;;;;5.43;3.08;;;18.60;99.90;;;;;;5055309;28;20076;-70
2022/09/08 13:21:14;;;;;;;6.00;3.10;;;18.70;99.90;;;;;;5055580;28;20067;-72
2022/09/08 13:24:29;;;;;;;5.50;3.25;;;18.70;99.90;;;;;;5054770;28;20051;-72